Sheridan, WY

11:32 PM MDT on October 20, 2014 (GMT -0600)
KWYSHERI2 | Change Station
CLOSE
Current Station
Personal Weather Station
Location: Sheridan, WY
Elevation: 3828 ft
Nearby Weather Stations

Elev 3828 ft 44.81 °N, 106.98 °W | Updated 8 seconds ago

Clear
Clear
45.5 °F
Feels Like 46 °F
N
0.0
Wind Variable Wind from NE
Gusts 0.0 mph

Today
High -- | Low -- °F
--% Chance of Precip.
Yesterday
High -- | Low -- °F
Precip. -- in
7:29 AM 6:14 PM
Waning Crescent, 7% visible
Pressure 29.84 in
Visibility 10.0 miles
Clouds Clear
Windchill 46 °F
Dew Point 32 °F
Humidity 58%
Rainfall 0.00 in
Snow Depth Not available.
UV 0 out of 12
Pollen 2.30 out of 12
Air Quality Not available.
Flu Activity Sporadic
METAR KSHR 210453Z AUTO 15003KT 10SM CLR 04/M01 A2985 RMK AO2 SLP104 T00441006 TSNO

More Conditions Fewer Conditions

Pressure 29.84 in
Visibility 10.0 miles
Clouds Clear
Windchill 46 °F
Dew Point 32 °F
Humidity 58%
Rainfall 0.00 in
Snow Depth Not available.
UV 0 out of 12
Pollen 2.30 out of 12
Air Quality Not available.
Flu Activity Sporadic
METAR KSHR 210453Z AUTO 15003KT 10SM CLR 04/M01 A2985 RMK AO2 SLP104 T00441006 TSNO

More Conditions Fewer Conditions

10-Day Weather Forecast

Almanac

Astronomy

Oct. 20, 2014 Rise Set
Actual Time 7:29 AM MDT 6:14 PM MDT
Civil Twilight 7:00 AM MDT 6:44 PM MDT
Nautical Twilight 6:26 AM MDT 7:18 PM MDT
Astronomical Twilight 5:52 AM MDT 7:52 PM MDT
Moon 4:13 AM MDT (10/20) 4:45 PM MDT (10/20)
Length of Visible Light 11h 44m
Length of Day
10h 44m
Tomorrow will be 2m 57s shorter.
Waning Crescent, 7% of the Moon is Illuminated
Oct 21
Waning Crescent
Oct 23
New
Oct 30
First Quarter
Nov 6
Full
Nov 14
Last Quarter

Yesterday's Extremes

State Highs State Lows

Community

WunderPhotos

Upload Photos

1,763,612 photos uploaded!

Nearby

Snow Depth

Station Depth Elevation
Casper Mountain 0 in 7850 ft
Sylvan Lake 0 in 8420 ft
Reno Hill 0 in 8500 ft
Togwotee Pass 0 in 7980 ft
Laprele Creek 0 in 8375 ft

Earthquake Activity

City Distance Mag. Time & Date
No recent earthquake activity has been reported nearby.
Minimum magnitude displayed is 2.5.

Coastal Water Temperatures

Place Temperature
No Stations Reporting

Nearby Weather Stations